This is the latest recevied weather packets stored in our database for station/object EA2BJM-15. If no packets are shown the sender has not sent any weather packets the latest 10 day(s).
| Time | Temp. | Humidity | Pressure | Rain* | Wind** | Luminosity | Snow |
|---|---|---|---|---|---|---|---|
| 1787751955 | 35° C | 16% | 1006.8 hPa | 0 mm | - | - | - |
| 1787751055 | 34.44° C | 17% | 1007.8 hPa | 0 mm | - | - | - |
| 1787750155 | 34.44° C | 17% | 1007.8 hPa | 0 mm | - | - | - |
| 1787749255 | 34.44° C | 17% | 1007.8 hPa | 0 mm | - | - | - |
| 1787748355 | 33.89° C | 18% | 1008.8 hPa | 0 mm | - | - | - |
| 1787747455 | 33.33° C | 18% | 1008.8 hPa | 0 mm | - | - | - |
| 1787746555 | 33.33° C | 19% | 1008.8 hPa | 0 mm | - | - | - |
| 1787745655 | 32.78° C | 20% | 1009.8 hPa | 0 mm | - | - | - |
| 1787744755 | 32.22° C | 20% | 1009.8 hPa | 0 mm | - | - | - |
| 1787743855 | 31.67° C | 22% | 1009.8 hPa | 0 mm | - | - | - |
| 1787742955 | 31.67° C | 25% | 1010.8 hPa | 0 mm | - | - | - |
| 1787742055 | 31.67° C | 28% | 1010.8 hPa | 0 mm | - | - | - |
| 1787741155 | 30.56° C | 28% | 1010.8 hPa | 0 mm | - | - | - |
| 1787740255 | 31.11° C | 28% | 1010.8 hPa | 0 mm | - | - | - |
| 1787739355 | 30.56° C | 29% | 1010.8 hPa | 0 mm | - | - | - |
| 1787738455 | 31.11° C | 28% | 1010.8 hPa | 0 mm | - | - | - |
| 1787737554 | 30.56° C | 29% | 1010.8 hPa | 0 mm | - | - | - |
| 1787736656 | 30.56° C | 29% | 1011.8 hPa | 0 mm | - | - | - |
| 1787735756 | 29.44° C | 30% | 1011.8 hPa | 0 mm | - | - | - |
| 1787734856 | 28.89° C | 31% | 1011.8 hPa | 0 mm | - | - | - |
| 1787733956 | 27.78° C | 35% | 1011.8 hPa | 0 mm | - | - | - |
| 1787733056 | 27.22° C | 39% | 1011.8 hPa | 0 mm | - | - | - |
| 1787732156 | 27.22° C | 39% | 1011.8 hPa | 0 mm | - | - | - |
| 1787731256 | 26.67° C | 41% | 1011.8 hPa | 0 mm | - | - | - |
| 1787730356 | 27.78° C | 38% | 1010.8 hPa | 0 mm | - | - | - |
* Rain latest hour (hover to see other rain measurements)
** Current wind speed in m/s (hover to see current wind gust speed)